createdAt,value
2023-03-16T00:04:11.179Z,22.20
2023-03-16T00:14:14.442Z,25.10
2023-03-16T00:24:18.725Z,18.70
2023-03-16T00:34:23.091Z,23.60
2023-03-16T00:44:26.246Z,18.30
2023-03-16T00:54:29.794Z,22.80
2023-03-16T01:04:34.374Z,20.70
2023-03-16T01:14:38.265Z,22.00
2023-03-16T01:24:46.226Z,16.90
2023-03-16T01:34:49.380Z,16.40
2023-03-16T01:45:05.790Z,19.00
2023-03-16T01:55:15.140Z,21.60
2023-03-16T02:05:25.977Z,18.10
2023-03-16T02:15:31.920Z,16.50
2023-03-16T02:25:59.921Z,20.90
2023-03-16T02:36:04.643Z,19.00
2023-03-16T02:46:08.705Z,19.20
2023-03-16T02:56:12.525Z,21.00
2023-03-16T03:06:16.743Z,18.10
2023-03-16T03:16:20.259Z,13.70
2023-03-16T03:26:25.049Z,21.00
2023-03-16T03:36:28.880Z,17.90
2023-03-16T03:46:32.428Z,18.60
2023-03-16T03:56:36.139Z,16.70
2023-03-16T04:06:46.589Z,19.80
2023-03-16T04:16:50.041Z,21.70
2023-03-16T04:26:55.383Z,18.30
2023-03-16T04:36:58.920Z,22.10
2023-03-16T04:47:03.820Z,16.20
2023-03-16T04:57:12.532Z,19.90
2023-03-16T05:07:19.982Z,21.10
2023-03-16T05:17:26.357Z,23.90
2023-03-16T05:27:31.408Z,23.40
2023-03-16T05:37:38.391Z,21.80
2023-03-16T05:47:44.111Z,23.50
2023-03-16T05:57:47.570Z,26.00
2023-03-16T06:07:53.459Z,28.00
2023-03-16T06:17:57.410Z,27.10
2023-03-16T06:28:01.430Z,29.50
2023-03-16T06:38:05.969Z,25.10
2023-03-16T06:48:23.694Z,22.50
2023-03-16T06:58:27.269Z,22.90
2023-03-16T07:08:31.444Z,22.90
2023-03-16T07:18:34.962Z,20.80
2023-03-16T07:28:39.482Z,19.30
2023-03-16T07:38:43.361Z,18.80
2023-03-16T07:48:48.561Z,13.10
2023-03-16T07:58:53.561Z,17.80
2023-03-16T08:08:56.909Z,13.90
2023-03-16T08:19:06.350Z,13.60
2023-03-16T08:29:09.766Z,16.40
2023-03-16T08:39:14.053Z,13.40
2023-03-16T08:49:21.211Z,9.90
2023-03-16T08:59:31.519Z,12.00
2023-03-16T09:09:35.695Z,10.20
2023-03-16T09:20:01.289Z,25.50
2023-03-16T09:30:07.681Z,17.80
2023-03-16T09:40:25.573Z,9.80
2023-03-16T10:01:37.156Z,8.30
2023-03-16T10:11:48.315Z,7.10
2023-03-16T10:21:55.998Z,10.00
2023-03-16T10:32:12.808Z,7.00
2023-03-16T10:42:20.186Z,6.70
2023-03-16T10:52:46.919Z,7.20
2023-03-16T11:02:52.108Z,10.80
2023-03-16T11:13:03.398Z,11.60
2023-03-16T11:23:16.840Z,7.40
2023-03-16T11:33:23.365Z,9.90
2023-03-16T11:43:35.510Z,10.10
2023-03-16T11:53:38.956Z,10.10
2023-03-16T12:04:07.698Z,9.10
2023-03-16T12:14:11.143Z,11.00
2023-03-16T12:24:27.253Z,9.10
2023-03-16T12:34:56.369Z,8.70
2023-03-16T12:45:20.152Z,11.50
2023-03-16T12:55:44.542Z,11.30
2023-03-16T13:05:54.171Z,10.70
2023-03-16T13:16:07.107Z,12.30
2023-03-16T13:26:14.779Z,13.00
2023-03-16T13:36:18.346Z,11.20
2023-03-16T13:46:27.942Z,13.30
2023-03-16T13:56:33.123Z,12.70
2023-03-16T14:06:37.843Z,9.70
2023-03-16T14:16:41.352Z,11.40
2023-03-16T14:26:47.378Z,10.90
2023-03-16T14:36:50.572Z,9.50
2023-03-16T14:46:59.640Z,10.00
2023-03-16T14:57:06.865Z,9.30
2023-03-16T15:07:36.884Z,8.80
2023-03-16T15:17:40.090Z,11.10
2023-03-16T15:27:44.677Z,11.00
2023-03-16T15:37:48.246Z,10.00
2023-03-16T15:47:53.443Z,10.70
2023-03-16T15:58:02.630Z,9.00
2023-03-16T16:08:06.190Z,10.70
2023-03-16T16:18:30.391Z,8.90
2023-03-16T16:28:35.210Z,10.40
2023-03-16T16:38:38.457Z,11.90
2023-03-16T16:48:50.841Z,15.70
2023-03-16T16:58:58.034Z,11.90
2023-03-16T17:09:01.853Z,16.60
2023-03-16T17:19:07.478Z,31.40
2023-03-16T17:29:21.255Z,26.40
2023-03-16T17:39:27.308Z,51.00
2023-03-16T17:49:32.084Z,47.00
2023-03-16T17:59:36.498Z,52.70
2023-03-16T18:09:41.099Z,42.70
2023-03-16T18:19:48.950Z,34.80
2023-03-16T18:29:53.070Z,35.90
2023-03-16T18:39:57.433Z,36.20
2023-03-16T18:50:00.949Z,34.90
2023-03-16T19:00:05.936Z,43.50
2023-03-16T19:10:26.820Z,53.60
2023-03-16T19:20:32.717Z,47.80
2023-03-16T19:30:37.278Z,95.50
2023-03-16T19:40:41.581Z,78.00
2023-03-16T19:50:44.695Z,69.30
2023-03-16T20:00:48.464Z,61.90
2023-03-16T20:10:59.498Z,70.10
2023-03-16T20:21:02.581Z,54.40
2023-03-16T20:31:09.362Z,68.90
2023-03-16T20:41:32.886Z,62.10
2023-03-16T20:51:36.099Z,70.80
2023-03-16T21:01:44.200Z,85.90
2023-03-16T21:11:48.517Z,58.40
2023-03-16T21:21:51.887Z,57.80
2023-03-16T21:31:56.193Z,51.80
2023-03-16T21:41:59.377Z,52.80
2023-03-16T21:52:02.615Z,64.40
2023-03-16T22:02:17.487Z,77.10
2023-03-16T22:12:21.175Z,71.60
2023-03-16T22:22:24.373Z,63.90
2023-03-16T22:32:27.507Z,58.70
2023-03-16T22:42:37.256Z,51.90
2023-03-16T22:52:40.633Z,61.10
2023-03-16T23:02:45.166Z,60.90
2023-03-16T23:12:51.249Z,60.20
2023-03-16T23:22:55.112Z,58.10
2023-03-16T23:32:58.229Z,50.60
2023-03-16T23:43:03.279Z,58.80
2023-03-16T23:53:13.522Z,66.10
